Lulu Pass Weather Station

This weather station is located at 10020ft near Lulu Pass at the head of Fisher Creek. This data can be used with temperature and precipitation data from the Fisher Creek SNOTEL site. This data can be viewed directly on datagarrison.com

Elevation
10020ft
Jump to table bottom
Date Time Temperature
deg F
RH, % Wind Speed Wind Gust Wind Direction
04/22/24 9:00 19.6 78 7 15 SW - 233
04/22/24 8:00 17.6 87 6 15 W - 267
04/22/24 7:00 17.9 88 7 19 SW - 246
04/22/24 6:00 18.2 93 6 14 W - 268
04/22/24 5:00 19.5 95 6 19 W - 261
04/22/24 4:00 21.5 96 10 27 W - 284
04/22/24 3:00 23.4 97 10 24 W - 289
04/22/24 2:00 25.3 97 14 27 NW - 299
04/22/24 1:00 26.6 98 12 24 NW - 299
04/21/24 24:00 27.6 98 7 17 W - 250
04/21/24 23:00 28.3 98 12 22 SW - 220
04/21/24 22:00 28.5 98 11 27 SW - 237
04/21/24 21:00 28.5 98 15 33 W - 278
04/21/24 20:00 29.4 98 10 29 W - 265
04/21/24 19:00 30.5 97 14 35 W - 264
04/21/24 18:00 33.6 92 12 31 SW - 237
04/21/24 17:00 37.0 59 18 37 SW - 233
04/21/24 16:00 36.9 59 20 42 SW - 229
04/21/24 15:00 38.1 55 20 41 SW - 233
04/21/24 14:00 38.9 49 14 38 SW - 234
04/21/24 13:00 38.2 47 12 25 SW - 229
04/21/24 12:00 34.7 48 8 23 SW - 237
04/21/24 11:00 33.9 46 8 17 W - 251
04/21/24 10:00 30.2 45 8 22 SW - 240
04/21/24 9:00 27.8 45 6 14 W - 256
04/21/24 8:00 26.3 46 7 18 W - 253
04/21/24 7:00 24.3 49 6 13 W - 278
04/21/24 6:00 23.5 51 5 14 W - 267
04/21/24 5:00 24.8 49 5 14 SW - 239
04/21/24 4:00 24.7 50 8 15 SW - 225
04/21/24 3:00 23.7 52 6 14 SW - 237
04/21/24 2:00 24.2 53 5 13 W - 279
04/21/24 1:00 23.0 55 3 7 NW - 295
04/20/24 24:00 23.8 54 5 10 W - 261
04/20/24 23:00 24.1 59 3 6 NW - 326
04/20/24 22:00 23.4 63 2 5 NW - 327
04/20/24 21:00 23.6 61 4 7 N - 351
04/20/24 20:00 26.0 56 5 7 N - 350
04/20/24 19:00 28.0 53 4 8 N - 10
04/20/24 18:00 29.6 54 6 10 N - 355
04/20/24 17:00 27.9 55 7 10 N - 0
04/20/24 16:00 26.2 55 7 12 N - 350
04/20/24 15:00 27.2 64 7 13 NW - 320
04/20/24 14:00 24.2 88 7 17 NW - 313
04/20/24 13:00 23.3 93 7 15 NW - 330
04/20/24 12:00 21.5 94 7 11 NW - 334
04/20/24 11:00 20.0 93 3 7 NW - 321
04/20/24 10:00 24.3 94 2 4 N - 1
04/20/24 9:00 16.3 92 7 10 N - 13
04/20/24 8:00 12.6 92 7 10 N - 1